createdAt,value
2022-12-22T00:00:25.132Z,98995.38
2022-12-22T00:03:15.563Z,98979.03
2022-12-22T00:06:05.779Z,98985.50
2022-12-22T00:09:00.268Z,98975.47
2022-12-22T00:11:54.190Z,98978.78
2022-12-22T00:14:44.466Z,98970.94
2022-12-22T00:17:46.025Z,98969.03
2022-12-22T00:20:38.950Z,98965.72
2022-12-22T00:23:29.828Z,98961.44
2022-12-22T00:26:20.347Z,98958.69
2022-12-22T00:29:11.128Z,98955.09
2022-12-22T00:32:01.666Z,98952.50
2022-12-22T00:35:00.484Z,98943.16
2022-12-22T00:37:52.928Z,98937.09
2022-12-22T00:40:47.244Z,98937.50
2022-12-22T00:43:37.432Z,98940.81
2022-12-22T00:46:30.281Z,98939.97
2022-12-22T00:49:21.182Z,98942.72
2022-12-22T00:52:11.534Z,98946.97
2022-12-22T00:55:02.079Z,98953.16
2022-12-22T00:57:52.342Z,98953.44
2022-12-22T01:00:42.629Z,98942.41
2022-12-22T01:03:33.151Z,98941.88
2022-12-22T01:06:28.282Z,98954.66
2022-12-22T01:09:19.118Z,98948.19
2022-12-22T01:12:09.350Z,98938.44
2022-12-22T01:15:02.710Z,98932.38
2022-12-22T01:17:52.821Z,98932.25
2022-12-22T01:20:43.225Z,98930.72
2022-12-22T01:23:33.419Z,98936.34
2022-12-22T01:26:27.887Z,98932.63
2022-12-22T01:29:18.092Z,98939.75
2022-12-22T01:32:08.455Z,98940.56
2022-12-22T01:34:59.385Z,98928.47
2022-12-22T01:37:49.375Z,98925.31
2022-12-22T01:40:43.639Z,98921.19
2022-12-22T01:43:41.053Z,98907.47
2022-12-22T01:46:42.048Z,98904.97
2022-12-22T01:49:37.481Z,98904.16
2022-12-22T01:52:31.003Z,98907.47
2022-12-22T01:55:26.686Z,98899.50
2022-12-22T01:58:16.826Z,98895.50
2022-12-22T02:01:07.347Z,98879.16
2022-12-22T02:03:57.446Z,98877.91
2022-12-22T02:07:00.041Z,98876.09
2022-12-22T02:10:08.912Z,98858.81
2022-12-22T02:13:17.919Z,98860.72
2022-12-22T02:16:17.268Z,98853.84
2022-12-22T02:19:18.363Z,98846.84
2022-12-22T02:22:47.278Z,98844.13
2022-12-22T02:25:49.411Z,98847.41
2022-12-22T02:28:40.714Z,98844.13
2022-12-22T02:31:31.244Z,98833.94
2022-12-22T02:34:22.345Z,98838.31
2022-12-22T02:37:29.695Z,98846.16
2022-12-22T02:40:38.821Z,98856.47
2022-12-22T02:43:50.541Z,98854.56
2022-12-22T02:46:53.815Z,98839.31
2022-12-22T02:50:27.896Z,98821.84
2022-12-22T02:53:20.432Z,98831.31
2022-12-22T02:56:20.990Z,98836.84
2022-12-22T02:59:11.735Z,98835.47
2022-12-22T03:02:05.277Z,98849.31
2022-12-22T03:04:55.797Z,98850.94
2022-12-22T03:07:45.845Z,98858.94
2022-12-22T03:10:36.149Z,98871.28
2022-12-22T03:13:26.576Z,98880.19
2022-12-22T03:16:16.748Z,98887.19
2022-12-22T03:19:06.899Z,98889.13
2022-12-22T03:21:57.195Z,98871.69
2022-12-22T03:24:47.438Z,98874.13
2022-12-22T03:27:19.106Z,98866.84
2022-12-22T03:29:50.790Z,98865.88
2022-12-22T03:32:22.543Z,98861.38
2022-12-22T03:34:54.228Z,98855.88
2022-12-22T03:37:25.908Z,98849.31
2022-12-22T03:39:57.554Z,98839.31
2022-12-22T03:42:47.782Z,98826.81
2022-12-22T03:45:38.064Z,98824.06
2022-12-22T03:48:12.062Z,98817.06
2022-12-22T03:50:43.903Z,98818.31
2022-12-22T03:53:15.626Z,98811.31
2022-12-22T03:55:47.271Z,98808.41
2022-12-22T03:58:18.982Z,98809.13
2022-12-22T04:00:50.804Z,98806.09
2022-12-22T04:03:22.622Z,98798.81
2022-12-22T04:05:54.460Z,98795.22
2022-12-22T04:08:26.165Z,98781.50
2022-12-22T04:11:16.516Z,98786.72
2022-12-22T04:13:48.195Z,98784.91
2022-12-22T04:16:19.948Z,98776.97
2022-12-22T04:18:52.047Z,98780.13
2022-12-22T04:21:24.399Z,98775.31
2022-12-22T04:23:56.147Z,98780.38
2022-12-22T04:26:27.901Z,98768.16
2022-12-22T04:28:59.718Z,98763.50
2022-12-22T04:31:31.492Z,98751.81
2022-12-22T04:34:03.752Z,98741.75
2022-12-22T04:36:35.545Z,98750.00
2022-12-22T04:39:07.329Z,98752.34
2022-12-22T04:41:39.034Z,98765.13
2022-12-22T04:44:10.760Z,98763.72
2022-12-22T04:46:42.479Z,98752.88
2022-12-22T04:49:14.183Z,98767.00
2022-12-22T04:51:45.907Z,98763.28
2022-12-22T04:54:17.639Z,98770.69
2022-12-22T04:56:50.485Z,98779.09
2022-12-22T04:59:22.550Z,98761.34
2022-12-22T05:01:57.324Z,98759.13
2022-12-22T05:04:29.160Z,98771.75
2022-12-22T05:07:00.953Z,98764.75
2022-12-22T05:09:32.701Z,98762.69
2022-12-22T05:12:27.591Z,98757.97
2022-12-22T05:14:59.337Z,98755.38
2022-12-22T05:17:31.046Z,98746.94
2022-12-22T05:20:03.033Z,98738.97
2022-12-22T05:22:34.723Z,98741.16
2022-12-22T05:25:07.086Z,98734.66
2022-12-22T05:27:38.932Z,98733.41
2022-12-22T05:30:11.806Z,98723.78
2022-12-22T05:32:46.701Z,98725.56
2022-12-22T05:35:18.589Z,98718.25
2022-12-22T05:37:50.313Z,98716.75
2022-12-22T05:40:22.041Z,98711.38
2022-12-22T05:42:54.491Z,98707.94
2022-12-22T05:45:26.293Z,98706.69
2022-12-22T05:47:58.034Z,98697.72
2022-12-22T05:50:29.795Z,98699.22
2022-12-22T05:53:08.801Z,98693.03
2022-12-22T05:55:40.518Z,98681.44
2022-12-22T05:58:12.245Z,98682.94
2022-12-22T06:00:43.961Z,98680.34
2022-12-22T06:03:15.739Z,98675.38
2022-12-22T06:05:50.450Z,98675.94
2022-12-22T06:08:22.935Z,98669.69
2022-12-22T06:10:55.800Z,98659.94
2022-12-22T06:13:27.539Z,98658.66
2022-12-22T06:15:59.288Z,98671.31
2022-12-22T06:18:31.051Z,98663.16
2022-12-22T06:21:02.828Z,98661.34
2022-12-22T06:23:34.473Z,98656.50
2022-12-22T06:26:06.140Z,98651.81
2022-12-22T06:28:37.794Z,98651.34
2022-12-22T06:31:09.551Z,98665.31
2022-12-22T06:33:41.377Z,98662.28
2022-12-22T06:36:13.116Z,98660.84
2022-12-22T06:38:44.850Z,98653.50
2022-12-22T06:41:36.488Z,98659.41
2022-12-22T06:44:08.121Z,98657.44
2022-12-22T06:46:39.865Z,98662.69
2022-12-22T06:49:12.074Z,98652.22
2022-12-22T06:51:43.817Z,98651.78
2022-12-22T06:54:18.444Z,98659.47
2022-12-22T06:56:54.085Z,98648.16
2022-12-22T06:59:25.832Z,98649.22
2022-12-22T07:01:57.563Z,98647.41
2022-12-22T07:04:30.814Z,98668.22
2022-12-22T07:07:02.651Z,98652.50
2022-12-22T07:09:34.357Z,98663.13
2022-12-22T07:12:06.269Z,98653.34
2022-12-22T07:14:37.944Z,98644.19
2022-12-22T07:17:09.663Z,98652.34
2022-12-22T07:19:41.959Z,98646.81
2022-12-22T07:22:13.637Z,98647.78
2022-12-22T07:24:45.303Z,98638.81
2022-12-22T07:27:17.158Z,98632.75
2022-12-22T07:29:48.864Z,98626.69
2022-12-22T07:32:20.555Z,98618.97
2022-12-22T07:34:52.289Z,98616.22
2022-12-22T07:37:23.980Z,98616.53
2022-12-22T07:39:55.627Z,98623.09
2022-12-22T07:42:47.715Z,98612.97
2022-12-22T07:45:20.126Z,98599.06
2022-12-22T07:47:52.374Z,98597.25
2022-12-22T07:50:27.999Z,98589.25
2022-12-22T07:53:04.319Z,98589.75
2022-12-22T07:55:36.789Z,98597.00
2022-12-22T07:58:08.483Z,98591.47
2022-12-22T08:00:40.187Z,98578.53
2022-12-22T08:03:12.041Z,98578.53
2022-12-22T08:05:45.536Z,98579.06
2022-12-22T08:08:17.261Z,98573.50
2022-12-22T08:10:49.059Z,98567.00
2022-12-22T08:13:20.778Z,98572.56
2022-12-22T08:15:52.568Z,98573.59
2022-12-22T08:18:27.196Z,98571.69
2022-12-22T08:20:58.918Z,98567.78
2022-12-22T08:23:31.397Z,98568.97
2022-12-22T08:26:16.550Z,98575.72
2022-12-22T08:28:52.860Z,98571.47
2022-12-22T08:31:27.383Z,98568.38
2022-12-22T08:34:04.448Z,98572.78
2022-12-22T08:36:42.049Z,98568.53
2022-12-22T08:39:14.894Z,98565.44
2022-12-22T08:41:53.624Z,98563.47
2022-12-22T08:44:30.738Z,98560.53
2022-12-22T08:47:02.535Z,98562.34
2022-12-22T08:49:34.346Z,98553.66
2022-12-22T08:52:06.067Z,98543.94
2022-12-22T08:54:37.739Z,98542.31
2022-12-22T08:57:09.887Z,98546.88
2022-12-22T08:59:41.908Z,98542.63
2022-12-22T09:02:13.996Z,98543.91
2022-12-22T09:04:45.796Z,98548.84
2022-12-22T09:07:18.391Z,98542.63
2022-12-22T09:09:50.572Z,98546.53
2022-12-22T09:12:22.724Z,98523.06
2022-12-22T09:14:54.506Z,98529.13
2022-12-22T09:17:26.362Z,98526.19
2022-12-22T09:19:58.087Z,98531.75
2022-12-22T09:22:29.814Z,98525.53
2022-12-22T09:25:01.532Z,98520.06
2022-12-22T09:27:33.229Z,98515.78
2022-12-22T09:30:05.579Z,98520.69
2022-12-22T09:32:37.318Z,98515.72
2022-12-22T09:35:09.280Z,98517.34
2022-12-22T09:37:40.993Z,98529.31
2022-12-22T09:40:13.057Z,98518.19
2022-12-22T09:42:44.976Z,98515.56
2022-12-22T09:45:20.270Z,98508.09
2022-12-22T09:47:54.176Z,98489.06
2022-12-22T09:50:27.656Z,98491.13
2022-12-22T09:53:02.964Z,98482.84
2022-12-22T09:55:47.369Z,98482.00
2022-12-22T09:58:33.619Z,98490.78
2022-12-22T10:01:05.321Z,98478.72
2022-12-22T10:04:00.407Z,98476.16
2022-12-22T10:06:42.506Z,98463.56
2022-12-22T10:09:48.040Z,98457.03
2022-12-22T10:12:17.408Z,98465.09
2022-12-22T10:14:51.862Z,98456.66
2022-12-22T10:17:34.397Z,98462.47
2022-12-22T10:20:08.195Z,98468.72
2022-12-22T10:22:48.211Z,98465.63
2022-12-22T10:26:17.214Z,98464.09
2022-12-22T10:28:40.791Z,98457.28
2022-12-22T10:31:20.969Z,98456.09
2022-12-22T10:33:57.578Z,98457.28
2022-12-22T10:36:32.326Z,98454.19
2022-12-22T10:39:03.955Z,98465.38
2022-12-22T10:41:40.210Z,98456.66
2022-12-22T10:44:21.985Z,98450.59
2022-12-22T10:46:56.492Z,98450.13
2022-12-22T10:49:29.831Z,98442.41
2022-12-22T10:52:16.222Z,98442.06
2022-12-22T10:54:48.247Z,98423.81
2022-12-22T10:57:20.298Z,98423.16
2022-12-22T11:00:21.369Z,98416.09
2022-12-22T11:02:58.719Z,98413.63
2022-12-22T11:05:32.456Z,98405.25
2022-12-22T11:08:18.439Z,98403.44
2022-12-22T11:11:07.288Z,98409.47
2022-12-22T11:13:38.974Z,98411.94
2022-12-22T11:16:22.565Z,98399.44
2022-12-22T11:19:29.986Z,98395.75
2022-12-22T11:22:24.639Z,98401.31
2022-12-22T11:25:23.592Z,98395.03
2022-12-22T11:28:11.049Z,98393.16
2022-12-22T11:31:04.165Z,98388.63
2022-12-22T11:34:20.856Z,98385.53
2022-12-22T11:37:13.706Z,98388.28
2022-12-22T11:39:53.018Z,98373.47
2022-12-22T11:43:23.446Z,98356.06
2022-12-22T11:46:26.822Z,98363.84
2022-12-22T11:49:11.447Z,98355.16
2022-12-22T11:52:08.747Z,98349.94
2022-12-22T11:54:52.906Z,98362.00
2022-12-22T11:58:01.010Z,98352.81
2022-12-22T12:01:12.771Z,98346.84
2022-12-22T12:04:10.288Z,98344.69
2022-12-22T12:07:09.110Z,98331.31
2022-12-22T12:09:53.860Z,98334.41
2022-12-22T12:12:35.781Z,98322.88
2022-12-22T12:15:37.920Z,98328.78
2022-12-22T12:18:47.363Z,98323.19
2022-12-22T12:21:29.980Z,98320.19
2022-12-22T12:24:42.472Z,98311.50
2022-12-22T12:27:41.710Z,98318.81
2022-12-22T12:33:15.301Z,98313.97
2022-12-22T12:36:02.592Z,98306.84
2022-12-22T12:39:13.445Z,98291.09
2022-12-22T12:41:49.994Z,98290.56
2022-12-22T12:44:26.506Z,98286.69
2022-12-22T12:47:22.067Z,98301.13
2022-12-22T12:49:53.767Z,98293.78
2022-12-22T12:52:40.795Z,98296.78
2022-12-22T12:55:32.247Z,98292.38
2022-12-22T12:58:10.195Z,98295.47
2022-12-22T13:00:50.816Z,98304.47
2022-12-22T13:03:53.343Z,98291.28
2022-12-22T13:06:49.976Z,98294.34
2022-12-22T13:12:53.921Z,98299.03
2022-12-22T13:15:38.192Z,98299.75
2022-12-22T13:18:25.733Z,98293.34
2022-12-22T13:21:51.789Z,98290.56
2022-12-22T13:24:24.754Z,98299.75
2022-12-22T13:27:04.618Z,98297.75
2022-12-22T13:29:42.576Z,98296.09
2022-12-22T13:32:35.891Z,98296.44
2022-12-22T13:35:49.159Z,98300.91
2022-12-22T13:38:37.282Z,98299.63
2022-12-22T13:41:27.930Z,98286.25
2022-12-22T13:44:11.929Z,98290.53
2022-12-22T13:46:44.580Z,98295.16
2022-12-22T13:49:36.159Z,98295.94
2022-12-22T13:52:14.853Z,98298.00
2022-12-22T13:54:49.914Z,98295.72
2022-12-22T13:57:22.367Z,98287.81
2022-12-22T13:59:55.116Z,98293.25
2022-12-22T14:02:33.390Z,98284.53
2022-12-22T14:05:11.561Z,98286.97
2022-12-22T14:08:04.364Z,98283.72
2022-12-22T14:10:39.023Z,98284.09
2022-12-22T14:13:18.343Z,98280.03
2022-12-22T14:16:00.935Z,98288.97
2022-12-22T14:18:33.541Z,98286.28
2022-12-22T14:21:06.370Z,98283.84
2022-12-22T14:23:43.293Z,98274.47
2022-12-22T14:26:24.044Z,98277.56
2022-12-22T14:28:56.697Z,98279.19
2022-12-22T14:31:28.510Z,98280.28
2022-12-22T14:34:05.348Z,98285.78
2022-12-22T14:36:41.137Z,98271.50
2022-12-22T14:39:25.615Z,98266.00
2022-12-22T14:42:01.028Z,98278.50
2022-12-22T14:44:43.835Z,98280.91
2022-12-22T14:47:18.883Z,98289.97
2022-12-22T14:50:01.322Z,98289.38
2022-12-22T14:52:59.254Z,98290.31
2022-12-22T14:55:36.777Z,98295.78
2022-12-22T14:58:38.758Z,98285.22
2022-12-22T15:01:28.464Z,98283.41
2022-12-22T15:04:02.651Z,98284.88
2022-12-22T15:06:40.678Z,98289.31
2022-12-22T15:09:15.418Z,98286.94
2022-12-22T15:11:49.272Z,98290.56
2022-12-22T15:14:35.087Z,98288.56
2022-12-22T15:17:21.399Z,98285.28
2022-12-22T15:19:57.846Z,98287.94
2022-12-22T15:22:29.595Z,98286.50
2022-12-22T15:25:04.171Z,98291.78
2022-12-22T15:27:35.861Z,98285.69
2022-12-22T15:30:08.408Z,98283.88
2022-12-22T15:32:41.491Z,98274.91
2022-12-22T15:35:25.764Z,98279.34
2022-12-22T15:37:57.816Z,98279.13
2022-12-22T15:40:29.667Z,98275.69
2022-12-22T15:43:01.394Z,98283.00
2022-12-22T15:45:33.628Z,98289.09
2022-12-22T15:48:10.125Z,98288.28
2022-12-22T15:50:44.072Z,98292.91
2022-12-22T15:53:19.065Z,98296.38
2022-12-22T15:55:53.930Z,98301.50
2022-12-22T15:58:29.036Z,98288.28
2022-12-22T16:01:00.923Z,98294.53
2022-12-22T16:03:32.853Z,98287.44
2022-12-22T16:06:06.891Z,98295.38
2022-12-22T16:08:40.822Z,98293.09
2022-12-22T16:11:12.711Z,98298.00
2022-12-22T16:13:45.392Z,98301.66
2022-12-22T16:16:20.379Z,98300.47
2022-12-22T16:18:52.283Z,98302.06
2022-12-22T16:21:31.998Z,98311.19
2022-12-22T16:24:04.035Z,98304.91
2022-12-22T16:26:36.990Z,98300.00
2022-12-22T16:29:15.912Z,98313.19
2022-12-22T16:31:49.645Z,98310.31
2022-12-22T16:34:21.695Z,98307.50
2022-12-22T16:36:53.443Z,98320.22
2022-12-22T16:39:25.163Z,98326.72
2022-12-22T16:41:59.882Z,98316.75
2022-12-22T16:47:26.277Z,98335.97
2022-12-22T16:49:59.857Z,98336.72
2022-12-22T16:52:38.771Z,98338.88
2022-12-22T16:55:22.193Z,98350.66
2022-12-22T16:57:54.135Z,98348.94
2022-12-22T17:00:31.606Z,98353.13
2022-12-22T17:03:15.440Z,98363.69
2022-12-22T17:05:59.203Z,98356.94
2022-12-22T17:08:39.306Z,98365.69
2022-12-22T17:11:18.185Z,98366.50
2022-12-22T17:13:54.017Z,98371.75
2022-12-22T17:16:25.786Z,98382.31
2022-12-22T17:18:57.498Z,98374.56
2022-12-22T17:21:29.909Z,98379.25
2022-12-22T17:24:04.767Z,98379.59
2022-12-22T17:26:36.920Z,98388.72
2022-12-22T17:29:20.315Z,98396.78
2022-12-22T17:31:56.397Z,98397.44
2022-12-22T17:34:28.468Z,98401.69
2022-12-22T17:37:00.172Z,98402.22
2022-12-22T17:39:33.891Z,98410.47
2022-12-22T17:42:21.065Z,98410.56
2022-12-22T17:44:53.295Z,98411.78
2022-12-22T17:47:33.377Z,98398.94
2022-12-22T17:50:10.438Z,98406.41
2022-12-22T17:52:42.424Z,98417.88
2022-12-22T17:56:01.308Z,98421.88
2022-12-22T17:58:20.952Z,98433.16
2022-12-22T18:00:54.695Z,98433.50
2022-12-22T18:03:26.393Z,98432.91
2022-12-22T18:06:00.076Z,98422.97
2022-12-22T18:08:32.029Z,98424.44
2022-12-22T18:11:03.782Z,98429.22
2022-12-22T18:13:35.690Z,98433.50
2022-12-22T18:16:15.292Z,98432.06
2022-12-22T18:18:49.707Z,98447.25
2022-12-22T18:21:24.155Z,98456.97
2022-12-22T18:23:55.968Z,98466.34
2022-12-22T18:26:29.967Z,98460.59
2022-12-22T18:29:04.128Z,98460.59
2022-12-22T18:31:36.568Z,98473.31
2022-12-22T18:34:08.296Z,98471.03
2022-12-22T18:36:42.472Z,98471.84
2022-12-22T18:39:19.012Z,98475.47
2022-12-22T18:41:54.266Z,98482.38
2022-12-22T18:44:26.117Z,98476.50
2022-12-22T18:46:59.938Z,98474.69
2022-12-22T18:49:31.737Z,98477.84
2022-12-22T18:52:03.929Z,98492.47
2022-12-22T18:54:38.131Z,98493.91
2022-12-22T18:57:18.258Z,98496.13
2022-12-22T18:59:50.204Z,98500.13
2022-12-22T19:02:28.061Z,98500.72
2022-12-22T19:04:59.846Z,98498.31
2022-12-22T19:07:31.543Z,98494.66
2022-12-22T19:10:04.651Z,98504.19
2022-12-22T19:12:36.443Z,98500.72
2022-12-22T19:15:18.985Z,98504.00
2022-12-22T19:17:52.055Z,98510.75
2022-12-22T19:20:26.746Z,98515.81
2022-12-22T19:22:58.395Z,98516.84
2022-12-22T19:25:32.215Z,98517.00
2022-12-22T19:28:14.297Z,98527.72
2022-12-22T19:30:46.073Z,98529.19
2022-12-22T19:33:41.568Z,98537.53
2022-12-22T19:36:15.688Z,98527.38
2022-12-22T19:38:52.223Z,98524.28
2022-12-22T19:41:38.474Z,98526.09
2022-12-22T19:44:28.007Z,98525.81
2022-12-22T19:47:03.041Z,98524.00
2022-12-22T19:49:34.737Z,98521.34
2022-12-22T19:52:06.570Z,98521.53
2022-12-22T19:54:38.503Z,98522.34
2022-12-22T19:57:18.141Z,98524.38
2022-12-22T19:59:52.305Z,98522.06
2022-12-22T20:02:31.449Z,98526.91
2022-12-22T20:05:03.395Z,98526.91
2022-12-22T20:07:37.026Z,98512.44
2022-12-22T20:10:08.855Z,98515.44
2022-12-22T20:12:42.829Z,98525.31
2022-12-22T20:15:18.900Z,98522.34
2022-12-22T20:17:52.293Z,98537.75
2022-12-22T20:20:31.032Z,98542.69
2022-12-22T20:23:06.711Z,98538.88
2022-12-22T20:25:41.864Z,98552.69
2022-12-22T20:28:17.895Z,98551.88
2022-12-22T20:30:50.576Z,98543.78
2022-12-22T20:33:24.140Z,98549.88
2022-12-22T20:35:58.308Z,98549.06
2022-12-22T20:38:33.381Z,98554.50
2022-12-22T20:41:07.479Z,98548.25
2022-12-22T20:43:39.444Z,98550.88
2022-12-22T20:46:14.179Z,98550.22
2022-12-22T20:48:56.326Z,98553.34
2022-12-22T20:51:31.527Z,98549.34
2022-12-22T20:54:03.379Z,98538.81
2022-12-22T20:56:38.439Z,98542.88
2022-12-22T20:59:22.281Z,98548.97
2022-12-22T21:01:54.725Z,98540.25
2022-12-22T21:04:29.381Z,98538.81
2022-12-22T21:07:01.470Z,98547.06
2022-12-22T21:09:33.249Z,98548.25
2022-12-22T21:12:05.913Z,98532.28
2022-12-22T21:14:40.547Z,98534.31
2022-12-22T21:17:16.637Z,98537.75
2022-12-22T21:19:48.489Z,98536.78
2022-12-22T21:22:21.816Z,98533.16
2022-12-22T21:24:54.519Z,98526.91
2022-12-22T21:27:26.649Z,98531.13
2022-12-22T21:29:58.376Z,98539.25
2022-12-22T21:32:30.112Z,98531.50
2022-12-22T21:35:07.810Z,98536.78
2022-12-22T21:37:40.923Z,98529.03
2022-12-22T21:40:25.283Z,98544.03
2022-12-22T21:42:58.112Z,98525.59
2022-12-22T21:45:31.582Z,98522.13
2022-12-22T21:48:03.602Z,98518.88
2022-12-22T21:50:35.656Z,98511.16
2022-12-22T21:53:09.053Z,98511.97
2022-12-22T21:55:41.711Z,98510.69
2022-12-22T21:58:15.072Z,98508.66
2022-12-22T22:00:49.063Z,98505.91
2022-12-22T22:03:20.807Z,98510.00
2022-12-22T22:05:53.967Z,98508.66
2022-12-22T22:08:25.709Z,98493.69
2022-12-22T22:10:58.995Z,98486.63
2022-12-22T22:13:30.784Z,98490.06
2022-12-22T22:16:02.627Z,98482.34
2022-12-22T22:18:35.108Z,98491.69
2022-12-22T22:21:11.899Z,98475.72
2022-12-22T22:23:46.893Z,98479.34
2022-12-22T22:26:18.625Z,98482.97
2022-12-22T22:28:53.411Z,98474.91
2022-12-22T22:31:24.981Z,98466.00
2022-12-22T22:33:56.837Z,98462.72
2022-12-22T22:36:28.623Z,98465.91
2022-12-22T22:39:01.841Z,98456.72
2022-12-22T22:41:39.268Z,98469.72
2022-12-22T22:44:14.555Z,98467.09
2022-12-22T22:46:46.268Z,98465.25
2022-12-22T22:49:21.376Z,98471.53
2022-12-22T22:51:59.359Z,98471.97
2022-12-22T22:54:31.090Z,98460.28
2022-12-22T22:57:02.808Z,98463.09
2022-12-22T22:59:34.716Z,98457.00
2022-12-22T23:02:06.540Z,98451.75
2022-12-22T23:04:38.402Z,98444.66
2022-12-22T23:07:11.350Z,98449.28
2022-12-22T23:09:43.071Z,98435.28
2022-12-22T23:12:15.017Z,98451.28
2022-12-22T23:14:46.791Z,98449.66
2022-12-22T23:17:18.517Z,98447.03
2022-12-22T23:19:50.242Z,98437.66
2022-12-22T23:22:24.772Z,98446.38
2022-12-22T23:24:56.535Z,98440.94
2022-12-22T23:27:28.293Z,98432.03
2022-12-22T23:30:00.066Z,98431.84
2022-12-22T23:32:34.534Z,98422.13
2022-12-22T23:35:07.160Z,98417.50
2022-12-22T23:37:38.829Z,98419.78
2022-12-22T23:40:50.270Z,98413.50
2022-12-22T23:43:02.834Z,98408.91
2022-12-22T23:45:34.595Z,98410.53
2022-12-22T23:48:07.812Z,98413.34
2022-12-22T23:50:39.504Z,98410.88
2022-12-22T23:53:11.315Z,98402.38
2022-12-22T23:55:47.589Z,98406.88
2022-12-22T23:58:20.126Z,98400.97
